createdAt,value
2018-06-12T00:00:14.819Z,2.00
2018-06-12T00:02:43.308Z,2.23
2018-06-12T00:05:11.725Z,2.07
2018-06-12T00:07:40.825Z,2.30
2018-06-12T00:10:09.475Z,2.77
2018-06-12T00:12:38.006Z,2.00
2018-06-12T00:15:06.667Z,2.40
2018-06-12T00:17:35.268Z,1.90
2018-06-12T00:20:03.919Z,1.87
2018-06-12T00:22:33.179Z,2.40
2018-06-12T00:25:01.822Z,2.53
2018-06-12T00:27:30.300Z,2.50
2018-06-12T00:29:58.759Z,2.30
2018-06-12T00:32:27.290Z,2.37
2018-06-12T00:34:55.999Z,2.30
2018-06-12T00:37:24.398Z,2.70
2018-06-12T00:39:53.009Z,2.60
2018-06-12T00:42:21.410Z,2.63
2018-06-12T00:44:50.098Z,2.07
2018-06-12T00:47:18.487Z,2.50
2018-06-12T00:49:47.007Z,2.27
2018-06-12T00:52:15.628Z,2.50
2018-06-12T00:54:44.159Z,2.50
2018-06-12T00:57:12.688Z,2.70
2018-06-12T00:59:41.173Z,2.63
2018-06-12T01:02:09.710Z,2.67
2018-06-12T01:04:38.116Z,2.30
2018-06-12T01:07:06.623Z,2.57
2018-06-12T01:09:35.115Z,2.33
2018-06-12T01:12:03.773Z,2.73
2018-06-12T01:14:32.215Z,2.73
2018-06-12T01:17:00.686Z,3.00
2018-06-12T01:19:29.080Z,2.70
2018-06-12T01:21:57.487Z,3.03
2018-06-12T01:24:25.936Z,3.07
2018-06-12T01:26:54.353Z,3.50
2018-06-12T01:29:22.737Z,3.53
2018-06-12T01:31:51.212Z,3.10
2018-06-12T01:34:19.611Z,3.63
2018-06-12T01:36:48.668Z,3.80
2018-06-12T01:39:17.214Z,3.70
2018-06-12T01:41:45.811Z,2.90
2018-06-12T01:44:14.551Z,3.40
2018-06-12T01:46:42.995Z,3.80
2018-06-12T01:49:11.564Z,3.00
2018-06-12T01:51:40.363Z,3.10
2018-06-12T01:54:08.823Z,3.60
2018-06-12T01:56:37.419Z,3.63
2018-06-12T01:59:05.942Z,3.97
2018-06-12T02:01:35.351Z,3.80
2018-06-12T02:04:03.886Z,3.90
2018-06-12T02:06:32.416Z,4.17
2018-06-12T02:09:00.924Z,4.13
2018-06-12T02:11:29.603Z,4.60
2018-06-12T02:13:58.039Z,4.63
2018-06-12T02:16:26.703Z,4.43
2018-06-12T02:18:55.227Z,4.90
2018-06-12T02:21:24.468Z,5.40
2018-06-12T02:23:53.246Z,5.03
2018-06-12T02:26:21.947Z,5.70
2018-06-12T02:28:50.702Z,5.97
2018-06-12T02:31:19.371Z,5.30
2018-06-12T02:33:47.942Z,4.87
2018-06-12T02:36:16.512Z,4.70
2018-06-12T02:38:45.047Z,5.50
2018-06-12T02:41:13.463Z,5.60
2018-06-12T02:43:42.863Z,5.03
2018-06-12T02:46:11.400Z,6.50
2018-06-12T02:48:40.143Z,6.90
2018-06-12T02:51:08.691Z,6.13
2018-06-12T02:53:37.272Z,6.77
2018-06-12T02:56:05.844Z,6.87
2018-06-12T02:58:34.627Z,8.23
2018-06-12T03:01:03.175Z,8.10
2018-06-12T03:03:32.170Z,8.30
2018-06-12T03:06:00.768Z,9.00
2018-06-12T03:08:29.302Z,8.90
2018-06-12T03:10:58.208Z,9.00
2018-06-12T03:13:26.760Z,8.30
2018-06-12T03:15:55.227Z,8.47
2018-06-12T03:18:23.663Z,8.50
2018-06-12T03:20:52.226Z,9.23
2018-06-12T03:23:20.711Z,8.53
2018-06-12T03:25:57.605Z,9.37
2018-06-12T03:28:26.743Z,8.67
2018-06-12T03:30:55.207Z,8.00
2018-06-12T03:33:23.777Z,8.90
2018-06-12T03:35:53.676Z,8.90
2018-06-12T03:38:22.301Z,8.40
2018-06-12T03:40:50.806Z,9.13
2018-06-12T03:43:19.397Z,10.00
2018-06-12T03:45:48.077Z,8.97
2018-06-12T03:48:17.239Z,7.80
2018-06-12T03:50:45.748Z,8.43
2018-06-12T03:53:15.130Z,7.87
2018-06-12T03:55:43.962Z,9.30
2018-06-12T03:58:12.462Z,9.03
2018-06-12T04:00:41.932Z,8.73
2018-06-12T04:03:10.465Z,9.83
2018-06-12T04:05:39.180Z,10.13
2018-06-12T04:08:07.426Z,10.63
2018-06-12T04:10:36.875Z,10.80
2018-06-12T04:13:05.592Z,8.77
2018-06-12T04:15:34.179Z,8.80
2018-06-12T04:18:02.630Z,9.03
2018-06-12T04:20:31.290Z,9.23
2018-06-12T04:22:59.834Z,9.27
2018-06-12T04:25:28.353Z,8.70
2018-06-12T04:28:01.218Z,9.73
2018-06-12T04:30:29.824Z,9.43
2018-06-12T04:32:58.379Z,9.27
2018-06-12T04:35:26.937Z,8.53
2018-06-12T04:37:55.479Z,8.13
2018-06-12T04:40:23.987Z,8.10
2018-06-12T04:42:53.065Z,7.90
2018-06-12T04:45:21.899Z,7.90
2018-06-12T04:47:50.183Z,7.30
2018-06-12T04:50:18.862Z,7.90
2018-06-12T04:52:47.573Z,7.67
2018-06-12T04:55:16.530Z,8.33
2018-06-12T04:57:45.107Z,8.53
2018-06-12T05:00:13.904Z,9.10
2018-06-12T05:02:42.519Z,7.43
2018-06-12T05:05:11.066Z,7.30
2018-06-12T05:07:39.671Z,8.43
2018-06-12T05:10:08.215Z,7.67
2018-06-12T05:12:36.720Z,8.43
2018-06-12T05:15:05.263Z,7.87
2018-06-12T05:17:34.196Z,7.80
2018-06-12T05:20:02.787Z,7.53
2018-06-12T05:22:31.265Z,10.10
2018-06-12T05:24:59.773Z,7.53
2018-06-12T05:27:28.457Z,8.50
2018-06-12T05:29:57.067Z,8.43
2018-06-12T05:32:25.640Z,7.37
2018-06-12T05:34:54.231Z,7.53
2018-06-12T05:37:22.860Z,6.43
2018-06-12T05:39:51.316Z,7.57
2018-06-12T05:42:20.000Z,6.30
2018-06-12T05:44:48.585Z,6.47
2018-06-12T05:47:17.042Z,6.20
2018-06-12T05:49:45.707Z,5.30
2018-06-12T05:52:14.144Z,5.60
2018-06-12T05:54:42.815Z,5.03
2018-06-12T05:57:11.330Z,5.73
2018-06-12T05:59:39.777Z,5.37
2018-06-12T06:02:08.239Z,5.53
2018-06-12T06:04:36.747Z,5.63
2018-06-12T06:07:05.320Z,5.67
2018-06-12T06:09:33.916Z,5.37
2018-06-12T06:12:02.464Z,4.83
2018-06-12T06:14:31.239Z,4.70
2018-06-12T06:16:59.807Z,4.73
2018-06-12T06:19:28.460Z,5.07
2018-06-12T06:21:57.094Z,4.23
2018-06-12T06:24:25.651Z,4.73
2018-06-12T06:26:54.206Z,4.07
2018-06-12T06:29:22.832Z,4.30
2018-06-12T06:31:51.283Z,4.67
2018-06-12T06:34:20.243Z,4.17
2018-06-12T06:36:48.801Z,4.60
2018-06-12T06:39:17.476Z,4.73
2018-06-12T06:41:45.932Z,4.47
2018-06-12T06:44:15.436Z,4.57
2018-06-12T06:46:44.392Z,4.63
2018-06-12T06:49:12.934Z,4.50
2018-06-12T06:51:41.453Z,5.00
2018-06-12T06:54:10.164Z,4.10
2018-06-12T06:56:38.676Z,4.50
2018-06-12T06:59:07.306Z,5.13
2018-06-12T07:01:36.156Z,4.97
2018-06-12T07:04:04.723Z,4.47
2018-06-12T07:06:33.279Z,5.33
2018-06-12T07:09:02.670Z,5.03
2018-06-12T07:11:31.021Z,5.57
2018-06-12T07:13:59.641Z,5.90
2018-06-12T07:16:28.406Z,5.30
2018-06-12T07:18:56.849Z,6.37
2018-06-12T07:21:25.352Z,5.40
2018-06-12T07:23:53.976Z,4.93
2018-06-12T07:26:22.432Z,5.43
2018-06-12T07:28:51.081Z,4.90
2018-06-12T07:31:19.556Z,4.80
2018-06-12T07:33:48.352Z,5.43
2018-06-12T07:36:17.083Z,4.90
2018-06-12T07:38:45.770Z,5.30
2018-06-12T07:41:14.429Z,5.30
2018-06-12T07:43:43.063Z,5.07
2018-06-12T07:46:11.592Z,5.13
2018-06-12T07:48:40.072Z,5.50
2018-06-12T07:51:08.720Z,5.20
2018-06-12T07:53:37.210Z,4.83
2018-06-12T07:56:05.857Z,5.73
2018-06-12T07:58:34.331Z,5.13
2018-06-12T08:01:02.912Z,4.77
2018-06-12T08:03:31.396Z,5.00
2018-06-12T08:06:01.059Z,5.33
2018-06-12T08:08:29.651Z,5.03
2018-06-12T08:10:58.467Z,4.73
2018-06-12T08:13:26.920Z,5.23
2018-06-12T08:15:55.361Z,4.40
2018-06-12T08:18:23.981Z,5.20
2018-06-12T08:20:52.532Z,5.77
2018-06-12T08:23:21.224Z,5.13
2018-06-12T08:25:49.656Z,5.60
2018-06-12T08:28:18.193Z,5.30
2018-06-12T08:30:46.663Z,6.13
2018-06-12T08:33:15.219Z,5.00
2018-06-12T08:35:43.848Z,6.10
2018-06-12T08:38:12.279Z,4.97
2018-06-12T08:40:40.707Z,4.77
2018-06-12T08:43:09.482Z,4.13
2018-06-12T08:45:37.915Z,4.30
2018-06-12T08:48:06.508Z,4.40
2018-06-12T08:50:34.968Z,4.23
2018-06-12T08:53:03.548Z,4.00
2018-06-12T08:55:32.129Z,3.30
2018-06-12T08:58:00.695Z,3.70
2018-06-12T09:00:29.204Z,3.63
2018-06-12T09:02:57.904Z,3.70
2018-06-12T09:05:27.116Z,3.70
2018-06-12T09:07:55.667Z,4.50
2018-06-12T09:10:24.249Z,4.13
2018-06-12T09:12:52.736Z,4.23
2018-06-12T09:15:21.373Z,3.90
2018-06-12T09:17:49.952Z,3.60
2018-06-12T09:20:18.488Z,4.20
2018-06-12T09:22:47.065Z,3.90
2018-06-12T09:25:15.537Z,4.10
2018-06-12T09:27:50.584Z,4.90
2018-06-12T09:30:19.215Z,4.30
2018-06-12T09:32:48.008Z,4.20
2018-06-12T09:35:16.464Z,4.20
2018-06-12T09:37:45.614Z,4.37
2018-06-12T09:40:14.141Z,4.97
2018-06-12T09:42:43.359Z,3.30
2018-06-12T09:45:12.574Z,3.53
2018-06-12T09:47:41.031Z,3.43
2018-06-12T09:50:09.821Z,4.07
2018-06-12T09:52:38.267Z,4.00
2018-06-12T09:55:06.931Z,3.60
2018-06-12T09:57:35.432Z,3.60
2018-06-12T10:00:04.015Z,3.57
2018-06-12T10:02:33.155Z,4.13
2018-06-12T10:05:01.909Z,3.37
2018-06-12T10:07:30.912Z,3.23
2018-06-12T10:09:59.784Z,3.27
2018-06-12T10:12:28.255Z,3.17
2018-06-12T10:14:56.838Z,2.53
2018-06-12T10:17:25.345Z,2.50
2018-06-12T10:19:53.784Z,2.77
2018-06-12T10:22:22.353Z,2.70
2018-06-12T10:24:50.811Z,2.33
2018-06-12T10:27:19.372Z,3.07
2018-06-12T10:29:47.845Z,2.80
2018-06-12T10:32:16.279Z,2.43
2018-06-12T10:34:44.749Z,2.50
2018-06-12T10:37:13.329Z,2.80
2018-06-12T10:39:41.653Z,2.07
2018-06-12T10:42:10.213Z,2.20
2018-06-12T10:44:38.983Z,2.23
2018-06-12T10:47:07.507Z,2.20
2018-06-12T10:49:35.973Z,2.30
2018-06-12T10:52:04.799Z,1.80
2018-06-12T10:54:33.409Z,1.63
2018-06-12T10:57:02.268Z,2.00
2018-06-12T10:59:30.692Z,1.57
2018-06-12T11:01:59.276Z,1.70
2018-06-12T11:04:27.827Z,1.50
2018-06-12T11:06:56.242Z,1.73
2018-06-12T11:09:24.676Z,1.60
2018-06-12T11:11:53.176Z,1.60
2018-06-12T11:14:21.811Z,1.50
2018-06-12T11:16:50.212Z,2.07
2018-06-12T11:19:18.748Z,2.10
2018-06-12T11:21:47.154Z,2.63
2018-06-12T11:24:15.697Z,2.17
2018-06-12T11:26:44.118Z,1.80
2018-06-12T11:29:12.594Z,1.60
2018-06-12T11:31:41.212Z,1.80
2018-06-12T11:34:09.691Z,1.60
2018-06-12T11:36:38.140Z,1.37
2018-06-12T11:39:08.455Z,1.20
2018-06-12T11:41:37.524Z,1.10
2018-06-12T11:44:06.061Z,1.50
2018-06-12T11:46:34.559Z,3.27
2018-06-12T11:49:03.025Z,4.47
2018-06-12T11:51:31.538Z,4.50
2018-06-12T11:54:00.035Z,4.77
2018-06-12T11:56:28.493Z,3.93
2018-06-12T11:58:57.079Z,3.70
2018-06-12T12:01:25.571Z,3.50
2018-06-12T12:03:54.106Z,3.50
2018-06-12T12:06:22.542Z,2.90
2018-06-12T12:08:51.147Z,2.40
2018-06-12T12:11:19.584Z,2.20
2018-06-12T12:13:48.155Z,2.37
2018-06-12T12:16:17.489Z,2.37
2018-06-12T12:18:45.735Z,2.10
2018-06-12T12:21:14.265Z,1.93
2018-06-12T12:23:42.471Z,2.00
2018-06-12T12:26:10.903Z,1.50
2018-06-12T12:28:39.390Z,1.70
2018-06-12T12:31:08.048Z,1.80
2018-06-12T12:33:36.460Z,1.73
2018-06-12T12:36:06.790Z,2.10
2018-06-12T12:38:35.364Z,2.03
2018-06-12T12:41:03.897Z,1.77
2018-06-12T12:43:32.381Z,2.73
2018-06-12T12:46:00.874Z,2.83
2018-06-12T12:48:29.473Z,2.73
2018-06-12T12:50:57.917Z,2.80
2018-06-12T12:53:26.447Z,2.77
2018-06-12T12:55:54.922Z,2.97
2018-06-12T12:58:23.343Z,3.10
2018-06-12T13:00:51.927Z,2.63
2018-06-12T13:03:20.402Z,3.10
2018-06-12T13:05:49.100Z,2.67
2018-06-12T13:08:17.836Z,2.80
2018-06-12T13:10:46.386Z,2.70
2018-06-12T13:13:14.850Z,2.80
2018-06-12T13:15:43.588Z,2.97
2018-06-12T13:18:12.196Z,2.80
2018-06-12T13:20:40.643Z,2.87
2018-06-12T13:23:08.743Z,2.50
2018-06-12T13:25:37.264Z,2.77
2018-06-12T13:28:05.840Z,2.90
2018-06-12T13:30:34.333Z,3.13
2018-06-12T13:33:02.784Z,3.10
2018-06-12T13:35:31.470Z,2.50
2018-06-12T13:37:59.944Z,3.03
2018-06-12T13:40:28.420Z,3.10
2018-06-12T13:42:56.887Z,2.80
2018-06-12T13:45:25.505Z,2.30
2018-06-12T13:47:54.041Z,2.63
2018-06-12T13:50:22.481Z,3.10
2018-06-12T13:52:51.169Z,2.33
2018-06-12T13:55:19.751Z,2.67
2018-06-12T13:57:48.200Z,2.40
2018-06-12T14:00:16.683Z,2.60
2018-06-12T14:02:45.804Z,2.87
2018-06-12T14:05:15.218Z,2.63
2018-06-12T14:07:43.871Z,2.50
2018-06-12T14:10:12.367Z,2.60
2018-06-12T14:12:40.958Z,2.63
2018-06-12T14:15:09.470Z,2.67
2018-06-12T14:17:38.265Z,2.27
2018-06-12T14:20:06.859Z,2.40
2018-06-12T14:22:35.767Z,2.60
2018-06-12T14:25:04.285Z,2.50
2018-06-12T14:27:32.865Z,2.67
2018-06-12T14:30:01.399Z,2.60
2018-06-12T14:32:30.066Z,2.43
2018-06-12T14:34:58.603Z,2.67
2018-06-12T14:37:27.230Z,2.30
2018-06-12T14:39:55.964Z,2.97
2018-06-12T14:42:24.421Z,3.07
2018-06-12T14:44:52.983Z,3.20
2018-06-12T14:47:21.561Z,3.50
2018-06-12T14:49:50.035Z,3.30
2018-06-12T14:52:18.593Z,3.13
2018-06-12T14:54:46.701Z,3.47
2018-06-12T14:57:15.521Z,4.13
2018-06-12T14:59:44.068Z,3.90
2018-06-12T15:02:12.803Z,4.40
2018-06-12T15:04:41.529Z,4.70
2018-06-12T15:07:10.015Z,4.60
2018-06-12T15:09:38.488Z,4.73
2018-06-12T15:12:07.305Z,4.27
2018-06-12T15:14:35.980Z,4.53
2018-06-12T15:17:04.648Z,4.67
2018-06-12T15:19:33.189Z,4.97
2018-06-12T15:22:01.910Z,5.27
2018-06-12T15:24:30.657Z,4.73
2018-06-12T15:26:59.212Z,5.00
2018-06-12T15:29:28.378Z,5.43
2018-06-12T15:31:57.040Z,5.37
2018-06-12T15:34:25.545Z,5.57
2018-06-12T15:36:54.504Z,5.83
2018-06-12T15:39:23.131Z,6.13
2018-06-12T15:41:52.431Z,5.80
2018-06-12T15:44:21.210Z,6.27
2018-06-12T15:46:49.720Z,6.27
2018-06-12T15:49:18.438Z,5.77
2018-06-12T15:51:46.972Z,5.90
2018-06-12T15:54:15.603Z,6.40
2018-06-12T15:56:45.113Z,6.23
2018-06-12T15:59:13.648Z,6.53
2018-06-12T16:01:42.348Z,6.30
2018-06-12T16:04:11.038Z,6.93
2018-06-12T16:06:39.824Z,6.47
2018-06-12T16:09:09.206Z,6.70
2018-06-12T16:11:38.016Z,6.10
2018-06-12T16:14:07.917Z,6.60
2018-06-12T16:16:36.509Z,6.20
2018-06-12T16:19:05.078Z,6.67
2018-06-12T16:21:33.684Z,6.30
2018-06-12T16:24:02.461Z,5.33
2018-06-12T16:26:30.892Z,5.77
2018-06-12T16:29:00.738Z,5.90
2018-06-12T16:31:29.248Z,6.27
2018-06-12T16:33:57.841Z,5.83
2018-06-12T16:36:26.920Z,6.40
2018-06-12T16:38:55.394Z,6.70
2018-06-12T16:41:24.037Z,6.13
2018-06-12T16:43:52.687Z,6.43
2018-06-12T16:46:21.150Z,5.67
2018-06-12T16:48:49.592Z,3.90
2018-06-12T16:51:18.244Z,3.77
2018-06-12T16:53:46.743Z,4.00
2018-06-12T16:56:15.380Z,4.07
2018-06-12T16:58:43.928Z,3.60
2018-06-12T17:01:12.397Z,3.60
2018-06-12T17:03:41.087Z,3.80
2018-06-12T17:06:09.676Z,3.83
2018-06-12T17:08:38.247Z,3.40
2018-06-12T17:11:06.809Z,3.87
2018-06-12T17:13:35.326Z,3.70
2018-06-12T17:16:04.043Z,3.27
2018-06-12T17:18:32.785Z,3.77
2018-06-12T17:21:01.368Z,3.60
2018-06-12T17:23:30.575Z,3.57
2018-06-12T17:25:59.111Z,3.00
2018-06-12T17:28:27.634Z,3.30
2018-06-12T17:30:56.145Z,3.47
2018-06-12T17:33:24.632Z,3.10
2018-06-12T17:35:53.093Z,3.17
2018-06-12T17:38:21.766Z,3.57
2018-06-12T17:40:50.281Z,3.30
2018-06-12T17:43:18.975Z,3.87
2018-06-12T17:45:48.093Z,3.53
2018-06-12T17:48:17.008Z,4.23
2018-06-12T17:50:45.255Z,4.10
2018-06-12T17:53:13.970Z,7.00
2018-06-12T17:55:42.523Z,7.00
2018-06-12T17:58:11.071Z,7.63
2018-06-12T18:00:39.669Z,8.50
2018-06-12T18:03:08.295Z,8.40
2018-06-12T18:05:36.967Z,8.87
2018-06-12T18:08:05.453Z,10.37
2018-06-12T18:10:34.191Z,9.80
2018-06-12T18:13:02.680Z,11.93
2018-06-12T18:15:31.264Z,12.73
2018-06-12T18:17:59.750Z,14.07
2018-06-12T18:20:28.309Z,14.53
2018-06-12T18:22:56.833Z,16.07
2018-06-12T18:25:25.372Z,15.87
2018-06-12T18:27:53.894Z,16.10
2018-06-12T18:30:22.614Z,17.07
2018-06-12T18:32:51.372Z,18.50
2018-06-12T18:35:19.973Z,18.03
2018-06-12T18:37:48.534Z,17.80
2018-06-12T18:40:17.408Z,19.00
2018-06-12T18:42:45.999Z,17.87
2018-06-12T18:45:14.948Z,18.83
2018-06-12T18:47:43.441Z,18.87
2018-06-12T18:50:12.011Z,17.63
2018-06-12T18:52:40.566Z,18.50
2018-06-12T18:55:09.254Z,17.10
2018-06-12T18:57:37.802Z,15.40
2018-06-12T19:00:06.615Z,14.73
2018-06-12T19:02:35.172Z,14.90
2018-06-12T19:05:03.937Z,14.60
2018-06-12T19:07:32.618Z,12.50
2018-06-12T19:10:01.196Z,11.53
2018-06-12T19:12:30.107Z,11.07
2018-06-12T19:14:58.618Z,9.50
2018-06-12T19:17:27.223Z,7.97
2018-06-12T19:19:55.994Z,6.67
2018-06-12T19:22:25.140Z,6.47
2018-06-12T19:24:53.854Z,5.13
2018-06-12T19:27:22.254Z,4.80
2018-06-12T19:29:50.783Z,3.40
2018-06-12T19:32:19.531Z,3.90
2018-06-12T19:34:48.047Z,3.43
2018-06-12T19:37:16.573Z,3.93
2018-06-12T19:39:45.120Z,3.67
2018-06-12T19:42:13.614Z,3.80
2018-06-12T19:44:42.507Z,3.50
2018-06-12T19:47:10.991Z,3.80
2018-06-12T19:49:39.595Z,3.27
2018-06-12T19:52:08.140Z,3.97
2018-06-12T19:54:37.332Z,4.00
2018-06-12T19:57:05.889Z,4.70
2018-06-12T19:59:34.557Z,4.63
2018-06-12T20:02:03.314Z,4.67
2018-06-12T20:04:31.940Z,4.90
2018-06-12T20:07:00.406Z,4.53
2018-06-12T20:09:29.077Z,4.20
2018-06-12T20:11:57.619Z,4.20
2018-06-12T20:14:26.284Z,3.97
2018-06-12T20:16:54.813Z,3.70
2018-06-12T20:19:23.331Z,3.30
2018-06-12T20:21:51.819Z,3.40
2018-06-12T20:24:20.284Z,3.90
2018-06-12T20:26:49.829Z,3.43
2018-06-12T20:29:18.289Z,3.90
2018-06-12T20:31:46.846Z,4.50
2018-06-12T20:34:15.403Z,3.93
2018-06-12T20:36:43.940Z,3.57
2018-06-12T20:39:12.431Z,4.60
2018-06-12T20:41:41.117Z,5.33
2018-06-12T20:44:09.600Z,5.50
2018-06-12T20:46:38.172Z,7.17
2018-06-12T20:49:06.706Z,7.30
2018-06-12T20:51:35.155Z,7.07
2018-06-12T20:54:03.844Z,7.73
2018-06-12T20:56:32.452Z,7.80
2018-06-12T20:59:01.065Z,8.07
2018-06-12T21:01:29.544Z,8.23
2018-06-12T21:03:58.158Z,8.87
2018-06-12T21:06:26.687Z,9.20
2018-06-12T21:08:55.276Z,10.10
2018-06-12T21:11:23.802Z,10.17
2018-06-12T21:13:52.423Z,10.13
2018-06-12T21:16:21.018Z,10.50
2018-06-12T21:18:49.580Z,12.37
2018-06-12T21:21:18.704Z,12.33
2018-06-12T21:23:47.284Z,12.63
2018-06-12T21:26:15.891Z,14.43
2018-06-12T21:28:44.474Z,14.97
2018-06-12T21:31:13.008Z,15.47
2018-06-12T21:33:41.920Z,15.50
2018-06-12T21:36:10.443Z,15.23
2018-06-12T21:38:39.275Z,15.57
2018-06-12T21:41:07.807Z,17.07
2018-06-12T21:43:37.123Z,18.20
2018-06-12T21:46:06.074Z,18.30
2018-06-12T21:48:34.605Z,17.83
2018-06-12T21:51:04.078Z,19.10
2018-06-12T21:53:32.572Z,18.00
2018-06-12T21:56:01.092Z,18.50
2018-06-12T21:58:29.688Z,17.10
2018-06-12T22:00:58.495Z,18.63
2018-06-12T22:03:27.085Z,16.90
2018-06-12T22:05:56.244Z,17.03
2018-06-12T22:08:24.935Z,15.53
2018-06-12T22:10:53.612Z,14.27
2018-06-12T22:13:22.899Z,15.03
2018-06-12T22:15:51.335Z,15.07
2018-06-12T22:18:19.864Z,15.40
2018-06-12T22:20:48.313Z,15.57
2018-06-12T22:23:16.925Z,15.13
2018-06-12T22:25:46.275Z,14.33
2018-06-12T22:28:15.426Z,13.90
2018-06-12T22:30:44.056Z,12.57
2018-06-12T22:33:12.732Z,14.27
2018-06-12T22:35:41.415Z,14.03
2018-06-12T22:38:10.167Z,12.93
2018-06-12T22:40:38.885Z,13.77
2018-06-12T22:43:07.459Z,13.33
2018-06-12T22:45:35.981Z,12.13
2018-06-12T22:48:04.634Z,11.60
2018-06-12T22:50:33.111Z,11.53
2018-06-12T22:53:01.536Z,10.63
2018-06-12T22:55:30.852Z,10.27
2018-06-12T22:57:59.333Z,11.77
2018-06-12T23:00:27.951Z,10.37
2018-06-12T23:02:57.469Z,11.17
2018-06-12T23:05:25.984Z,10.83
2018-06-12T23:07:54.725Z,11.07
2018-06-12T23:10:23.289Z,12.23
2018-06-12T23:12:52.161Z,11.20
2018-06-12T23:15:21.404Z,11.60
2018-06-12T23:17:49.951Z,11.20
2018-06-12T23:20:29.757Z,12.63
2018-06-12T23:22:58.182Z,10.70
2018-06-12T23:25:26.779Z,11.27
2018-06-12T23:27:55.500Z,11.13
2018-06-12T23:30:24.026Z,10.37
2018-06-12T23:32:52.489Z,10.00
2018-06-12T23:35:21.007Z,10.13
2018-06-12T23:37:49.664Z,10.03
2018-06-12T23:40:18.235Z,10.07
2018-06-12T23:42:47.140Z,9.80
2018-06-12T23:45:15.707Z,9.67
2018-06-12T23:47:44.164Z,10.20
2018-06-12T23:50:12.649Z,11.43
2018-06-12T23:52:41.199Z,10.77
2018-06-12T23:55:10.376Z,10.70
2018-06-12T23:57:39.504Z,11.47
